Flight Track Log - Related Links

Times and Time Zones

All times are in EDT time to prevent confusion due to time zone crossing. See the SWA3675 flight status page for this flight to view local times or setup timezone preferences in your user account.

Time Position Orientation Groundspeed Altitude Reporting Facility
EDT Latitude Longitude Course Direction KTS MPH feet Rate Location/Type
Tue 12:52:42 PM 24.7011 -81.7117 346° North 231 266 10,000  Level Miami Center
Tue 12:53:42 PM 24.7719 -81.7144 358° North 241 277 11,900 2,250 Climbing Miami Center
Tue 12:54:42 PM 24.8678 -81.7181 358° North 289 333 14,500 3,100 Climbing Miami Center
Tue 12:55:42 PM 24.9828 -81.7206 359° North 352 405 18,100 3,550 Climbing Miami Center
Tue 12:56:00 PM 25.0975 -81.3406 31° Northeast  Level FlightAware Approximate
Tue 12:56:42 PM 25.0889 -81.7247 358° North 374 430 21,600  Level Miami Center
Tue 12:57:00 PM 25.1833 -81.3379 346° North  Level FlightAware Approximate
Tue 12:57:42 PM 25.1975 -81.7289 358° North 379 436 22,000  Level Miami Center
Tue 12:58:00 PM 25.2718 -81.3620 346° North  Level FlightAware Approximate
Tue 12:58:42 PM 25.3164 -81.7336 358° North 404 465 22,000  Level Miami Center
Tue 12:59:42 PM 25.4228 -81.7381 358° North 411 473 22,000  Level Miami Center
Tue 01:00:42 PM 25.5394 -81.7428 358° North 416 479 22,000  Level Miami Center
Tue 01:01:42 PM 25.6564 -81.7450 359° North 421 484 22,000  Level Miami Center
Tue 01:02:42 PM 25.7731 -81.7500 358° North 421 484 22,000  Level Miami Center
Tue 01:03:42 PM 25.8897 -81.7547 358° North 421 484 22,000  Level Miami Center
Tue 01:04:42 PM 26.0067 -81.7572 359° North 421 484 22,000  Level Miami Center
Tue 01:05:42 PM 26.1233 -81.7619 358° North 421 484 22,000  Level Miami Center
Tue 01:06:42 PM 26.2403 -81.7644 359° North 421 484 22,000 -350 Level Miami Center
Tue 01:07:42 PM 26.3569 -81.7692 358° North 421 484 21,300 -1,350 Descending Miami Center
Tue 01:08:42 PM 26.4592 -81.7736 358° North 397 457 19,300 -1,650 Descending Miami Center
Tue 01:09:42 PM 26.5697 -81.7781 358° North 370 426 18,000 -650 Descending Miami Center
Tue 01:10:42 PM 26.6719 -81.7778 360° North 360 414 18,000  Level Miami Center
Tue 01:11:42 PM 26.7767 -81.7728 North 365 420 18,000  Level Miami Center
Tue 01:12:42 PM 26.8811 -81.7703 North 365 420 18,000  Level Miami Center
Tue 01:13:42 PM 26.9856 -81.7678 North 365 420 18,000  Level Miami Center
Tue 01:14:42 PM 27.0878 -81.7672 360° North 365 420 18,000  Level Miami Center
Tue 01:15:42 PM 27.1944 -81.7625 North 365 420 18,000 -50 Level Miami Center
Tue 01:16:42 PM 27.2989 -81.7622 360° North 365 420 17,900 -450 Descending Miami Center
Tue 01:17:42 PM 27.4011 -81.7572 North 365 420 17,100 -1,300 Descending Miami Center
Tue 01:18:42 PM 27.5033 -81.7569 360° North 365 420 15,300 -1,950 Descending Miami Center
Tue 01:19:42 PM 27.5994 -81.7539 North 365 420 13,200 -1,150 Descending Miami Center
Tue 01:20:42 PM 27.7061 -81.7514 North 365 420 13,000 -100 Descending Miami Center
Tue 01:21:42 PM 27.8064 -81.7511 360° North 354 407 13,000  Level Miami Center
Tue 01:23:50 PM 28.0333 -81.7500 360° North 375 432 13,000 -160 Level Orlando TRACON
Tue 01:24:50 PM 28.1333 -81.7333 North 350 403 12,500 -850 Descending Orlando TRACON
Tue 01:25:50 PM 28.1833 -81.6500 56° Northeast 304 350 11,300 -1,304 Descending Orlando TRACON
Tue 01:26:45 PM 28.2167 -81.5833 60° Northeast 295 339 10,000 -1,087 Descending Orlando TRACON
Tue 01:27:57 PM 28.2833 -81.5000 48° Northeast 290 334 9,000 -500 Descending Orlando TRACON
Tue 01:28:45 PM 28.3167 -81.4500 53° Northeast 290 334 9,000 -211 Level Orlando TRACON
Tue 01:29:51 PM 28.4000 -81.4167 19° North 256 295 8,600 -750 Descending Orlando TRACON
Tue 01:30:45 PM 28.4667 -81.4167 360° North 239 275 7,500 -1,579 Descending Orlando TRACON
Tue 01:31:45 PM 28.5333 -81.4167 360° North 234 269 5,600 -2,100 Descending Orlando TRACON
Tue 01:32:45 PM 28.5833 -81.4000 16° North 219 252 3,300 -1,476 Descending Orlando TRACON
Tue 01:33:51 PM 28.5833 -81.3333 90° East 184 212 2,500 -429 Descending Orlando TRACON
Tue 01:34:51 PM 28.5667 -81.2833 111° Southeast 157 181 2,400 -474 Descending Orlando TRACON
Tue 01:35:45 PM 28.5167 -81.3000 196° South 141 162 1,600 -744 Descending Orlando TRACON
Tue 01:36:52 PM 28.4833 -81.3000 180° South 145 167 900 -627 Descending Orlando TRACON

Login

Don't have an account? Register now (free) for customized features, flight alerts, and more!